createdAt,value
2022-08-17T00:01:31.451Z,5.30
2022-08-17T00:04:19.324Z,5.00
2022-08-17T00:06:46.252Z,5.27
2022-08-17T00:09:18.697Z,4.80
2022-08-17T00:12:40.367Z,5.30
2022-08-17T00:14:36.146Z,4.70
2022-08-17T00:17:04.658Z,5.40
2022-08-17T00:19:32.718Z,5.37
2022-08-17T00:22:34.963Z,4.93
2022-08-17T00:24:49.786Z,5.23
2022-08-17T00:27:16.502Z,5.70
2022-08-17T00:29:45.470Z,5.20
2022-08-17T00:33:11.855Z,5.13
2022-08-17T00:35:00.128Z,5.33
2022-08-17T00:37:26.812Z,5.00
2022-08-17T00:39:53.407Z,6.03
2022-08-17T00:42:20.192Z,5.80
2022-08-17T00:44:46.928Z,5.30
2022-08-17T00:47:13.508Z,5.50
2022-08-17T00:49:40.302Z,5.43
2022-08-17T00:52:15.493Z,5.50
2022-08-17T00:54:44.621Z,5.17
2022-08-17T00:57:15.663Z,5.77
2022-08-17T00:59:47.155Z,5.37
2022-08-17T01:02:29.449Z,5.50
2022-08-17T01:05:01.189Z,5.10
2022-08-17T01:07:27.800Z,5.30
2022-08-17T01:09:54.632Z,5.63
2022-08-17T01:12:21.546Z,5.63
2022-08-17T01:14:48.585Z,5.30
2022-08-17T01:17:15.349Z,5.60
2022-08-17T01:19:42.788Z,5.67
2022-08-17T01:22:09.383Z,6.10
2022-08-17T01:24:38.677Z,5.20
2022-08-17T01:27:10.491Z,6.30
2022-08-17T01:29:39.000Z,5.60
2022-08-17T01:32:07.764Z,6.33
2022-08-17T01:34:42.984Z,6.00
2022-08-17T01:37:12.103Z,6.30
2022-08-17T01:39:44.709Z,5.63
2022-08-17T01:42:17.590Z,5.73
2022-08-17T01:44:44.467Z,5.70
2022-08-17T01:47:11.158Z,5.80
2022-08-17T01:49:37.794Z,5.70
2022-08-17T01:52:09.885Z,5.90
2022-08-17T01:54:38.262Z,5.13
2022-08-17T01:57:05.068Z,6.00
2022-08-17T01:59:31.686Z,5.43
2022-08-17T02:01:58.441Z,5.70
2022-08-17T02:04:25.203Z,5.73
2022-08-17T02:06:53.162Z,5.70
2022-08-17T02:09:25.155Z,5.90
2022-08-17T02:11:54.278Z,5.90
2022-08-17T02:14:21.153Z,5.53
2022-08-17T02:16:47.769Z,6.07
2022-08-17T02:19:15.873Z,5.50
2022-08-17T02:21:45.930Z,5.87
2022-08-17T02:24:17.050Z,5.60
2022-08-17T02:26:43.983Z,5.60
2022-08-17T02:29:10.564Z,6.20
2022-08-17T02:31:37.881Z,5.60
2022-08-17T02:34:05.433Z,5.27
2022-08-17T02:36:34.209Z,5.63
2022-08-17T02:39:06.582Z,5.40
2022-08-17T02:41:33.746Z,5.87
2022-08-17T02:44:00.418Z,5.70
2022-08-17T02:46:28.483Z,5.70
2022-08-17T02:48:55.164Z,5.70
2022-08-17T02:51:21.773Z,5.50
2022-08-17T02:53:48.345Z,5.97
2022-08-17T02:56:15.054Z,6.13
2022-08-17T02:58:41.677Z,6.23
2022-08-17T03:01:10.177Z,6.10
2022-08-17T03:03:37.653Z,6.10
2022-08-17T03:06:04.898Z,5.60
2022-08-17T03:08:31.787Z,5.93
2022-08-17T03:10:58.394Z,6.20
2022-08-17T03:13:25.009Z,5.87
2022-08-17T03:15:51.779Z,6.20
2022-08-17T03:18:25.565Z,6.23
2022-08-17T03:20:58.335Z,6.00
2022-08-17T03:23:26.322Z,6.17
2022-08-17T03:25:54.625Z,6.30
2022-08-17T03:28:22.102Z,6.40
2022-08-17T03:30:49.171Z,6.30
2022-08-17T03:33:17.006Z,6.40
2022-08-17T03:35:44.114Z,6.17
2022-08-17T03:38:11.966Z,6.50
2022-08-17T03:40:56.908Z,6.70
2022-08-17T03:43:28.465Z,6.30
2022-08-17T03:46:27.962Z,5.97
2022-08-17T03:49:15.429Z,6.10
2022-08-17T03:52:00.881Z,6.50
2022-08-17T03:54:46.012Z,6.50
2022-08-17T03:57:13.096Z,6.90
2022-08-17T03:59:40.576Z,6.60
2022-08-17T04:02:18.261Z,6.70
2022-08-17T04:04:44.992Z,6.60
2022-08-17T04:07:11.759Z,6.47
2022-08-17T04:09:38.364Z,6.23
2022-08-17T04:12:05.470Z,6.23
2022-08-17T04:14:47.744Z,6.43
2022-08-17T04:17:20.033Z,6.27
2022-08-17T04:19:46.952Z,6.30
2022-08-17T04:22:32.135Z,7.10
2022-08-17T04:25:14.023Z,6.40
2022-08-17T04:27:40.606Z,5.83
2022-08-17T04:30:08.013Z,6.33
2022-08-17T04:33:05.486Z,6.37
2022-08-17T04:35:37.724Z,6.57
2022-08-17T04:38:04.946Z,6.20
2022-08-17T04:40:50.054Z,6.50
2022-08-17T04:43:20.417Z,6.67
2022-08-17T04:46:04.943Z,6.80
2022-08-17T04:48:36.617Z,6.80
2022-08-17T04:51:06.910Z,6.50
2022-08-17T04:53:33.642Z,7.30
2022-08-17T04:56:00.326Z,6.60
2022-08-17T04:58:27.165Z,7.07
2022-08-17T05:00:53.827Z,6.90
2022-08-17T05:03:20.555Z,6.23
2022-08-17T05:05:49.963Z,6.37
2022-08-17T05:08:18.637Z,6.43
2022-08-17T05:10:45.950Z,5.90
2022-08-17T05:13:16.318Z,6.40
2022-08-17T05:15:45.100Z,6.20
2022-08-17T05:18:14.390Z,6.37
2022-08-17T05:20:41.763Z,6.40
2022-08-17T05:23:11.618Z,6.20
2022-08-17T05:25:47.441Z,6.50
2022-08-17T05:28:15.482Z,6.40
2022-08-17T05:30:43.410Z,6.20
2022-08-17T05:33:16.675Z,6.17
2022-08-17T05:35:47.058Z,6.73
2022-08-17T05:38:15.053Z,6.90
2022-08-17T05:40:43.339Z,6.93
2022-08-17T05:43:11.379Z,6.80
2022-08-17T05:46:00.999Z,6.60
2022-08-17T05:48:35.410Z,6.70
2022-08-17T05:51:21.850Z,6.47
2022-08-17T05:53:54.385Z,6.50
2022-08-17T05:56:58.806Z,6.73
2022-08-17T05:59:44.164Z,7.33
2022-08-17T06:02:28.793Z,7.30
2022-08-17T06:04:58.091Z,6.90
2022-08-17T06:07:43.847Z,7.00
2022-08-17T06:10:34.238Z,7.13
2022-08-17T06:13:11.362Z,7.00
2022-08-17T06:15:56.107Z,7.37
2022-08-17T06:18:25.957Z,7.67
2022-08-17T06:21:04.421Z,7.37
2022-08-17T06:23:35.482Z,7.33
2022-08-17T06:26:14.829Z,7.67
2022-08-17T06:28:51.906Z,7.63
2022-08-17T06:31:22.975Z,7.13
2022-08-17T06:33:50.216Z,6.80
2022-08-17T06:36:35.060Z,7.43
2022-08-17T06:39:23.058Z,6.83
2022-08-17T06:43:02.358Z,7.07
2022-08-17T06:45:05.863Z,7.40
2022-08-17T06:48:05.788Z,7.30
2022-08-17T06:50:39.962Z,7.80
2022-08-17T06:53:09.905Z,6.80
2022-08-17T06:55:45.211Z,6.93
2022-08-17T06:58:16.021Z,7.13
2022-08-17T07:00:45.894Z,6.40
2022-08-17T07:03:18.905Z,6.67
2022-08-17T07:05:53.069Z,7.00
2022-08-17T07:08:59.148Z,6.30
2022-08-17T07:11:31.451Z,6.77
2022-08-17T07:14:04.817Z,6.63
2022-08-17T07:16:38.732Z,6.73
2022-08-17T07:19:07.358Z,5.93
2022-08-17T07:21:43.580Z,6.87
2022-08-17T07:24:30.421Z,6.10
2022-08-17T07:27:35.663Z,6.20
2022-08-17T07:30:10.813Z,6.40
2022-08-17T07:32:54.601Z,6.53
2022-08-17T07:35:31.262Z,6.30
2022-08-17T07:38:25.415Z,6.27
2022-08-17T07:40:57.791Z,6.20
2022-08-17T07:43:26.124Z,5.50
2022-08-17T07:46:30.379Z,5.83
2022-08-17T07:49:37.533Z,6.33
2022-08-17T07:52:24.233Z,6.17
2022-08-17T07:54:56.813Z,5.80
2022-08-17T07:57:31.383Z,6.10
2022-08-17T08:00:01.294Z,6.60
2022-08-17T08:02:33.458Z,6.03
2022-08-17T08:05:02.743Z,6.10
2022-08-17T08:07:38.849Z,6.20
2022-08-17T08:10:13.977Z,6.33
2022-08-17T08:13:04.248Z,6.03
2022-08-17T08:15:37.838Z,6.47
2022-08-17T08:18:06.554Z,6.57
2022-08-17T08:20:51.486Z,5.90
2022-08-17T08:23:42.718Z,6.23
2022-08-17T08:26:30.990Z,5.50
2022-08-17T08:29:10.282Z,5.73
2022-08-17T08:31:48.740Z,5.60
2022-08-17T08:35:00.854Z,5.60
2022-08-17T08:37:20.673Z,5.23
2022-08-17T08:40:04.564Z,5.77
2022-08-17T08:42:52.827Z,5.43
2022-08-17T08:45:24.170Z,5.13
2022-08-17T08:48:46.231Z,5.40
2022-08-17T08:51:10.816Z,5.40
2022-08-17T08:53:46.432Z,5.20
2022-08-17T08:56:36.446Z,5.30
2022-08-17T08:59:32.920Z,5.33
2022-08-17T09:02:16.492Z,5.23
2022-08-17T09:05:15.554Z,4.93
2022-08-17T09:08:21.019Z,4.40
2022-08-17T09:11:05.977Z,4.63
2022-08-17T09:13:59.894Z,4.40
2022-08-17T09:16:36.084Z,4.50
2022-08-17T09:19:12.380Z,3.83
2022-08-17T09:21:49.195Z,3.95
2022-08-17T09:24:21.212Z,3.72
2022-08-17T09:27:09.468Z,3.83
2022-08-17T09:29:40.044Z,4.13
2022-08-17T09:32:23.722Z,3.65
2022-08-17T09:34:57.093Z,3.80
2022-08-17T09:37:38.202Z,4.00
2022-08-17T09:40:24.841Z,3.83
2022-08-17T09:43:01.067Z,3.63
2022-08-17T09:45:50.679Z,3.85
2022-08-17T09:48:21.537Z,3.78
2022-08-17T09:51:07.873Z,3.60
2022-08-17T09:53:38.870Z,4.00
2022-08-17T09:56:31.648Z,3.78
2022-08-17T09:59:20.142Z,4.15
2022-08-17T10:02:20.909Z,3.60
2022-08-17T10:04:56.994Z,3.90
2022-08-17T10:07:34.327Z,3.58
2022-08-17T10:10:13.943Z,4.00
2022-08-17T10:12:47.852Z,3.55
2022-08-17T10:15:31.519Z,3.80
2022-08-17T10:18:15.647Z,3.75
2022-08-17T10:21:26.981Z,3.67
2022-08-17T10:25:21.248Z,3.55
2022-08-17T10:27:40.019Z,3.70
2022-08-17T10:30:08.825Z,3.80
2022-08-17T10:32:41.183Z,3.78
2022-08-17T10:35:33.952Z,3.40
2022-08-17T10:38:24.749Z,3.45
2022-08-17T10:40:59.094Z,3.75
2022-08-17T10:43:38.470Z,3.60
2022-08-17T10:46:31.526Z,3.50
2022-08-17T10:49:16.963Z,4.10
2022-08-17T10:51:57.701Z,3.50
2022-08-17T10:54:24.286Z,3.67
2022-08-17T10:56:53.514Z,3.90
2022-08-17T10:59:38.609Z,4.03
2022-08-17T11:02:26.987Z,3.83
2022-08-17T11:05:20.562Z,3.88
2022-08-17T11:08:12.667Z,3.67
2022-08-17T11:10:52.358Z,4.32
2022-08-17T11:13:47.611Z,4.07
2022-08-17T11:16:36.005Z,4.13
2022-08-17T11:19:11.709Z,4.40
2022-08-17T11:21:44.140Z,4.05
2022-08-17T11:24:13.377Z,3.83
2022-08-17T11:26:46.744Z,4.00
2022-08-17T11:29:24.893Z,3.83
2022-08-17T11:32:02.189Z,4.35
2022-08-17T11:34:30.953Z,4.00
2022-08-17T11:37:30.091Z,4.22
2022-08-17T11:40:21.680Z,4.35
2022-08-17T11:42:51.295Z,3.95
2022-08-17T11:45:32.579Z,4.13
2022-08-17T11:48:56.891Z,4.50
2022-08-17T11:51:34.030Z,4.03
2022-08-17T11:54:31.260Z,4.22
2022-08-17T11:56:51.835Z,4.03
2022-08-17T11:59:32.661Z,4.50
2022-08-17T12:02:04.503Z,3.67
2022-08-17T12:04:33.903Z,3.88
2022-08-17T12:07:08.456Z,4.00
2022-08-17T12:09:39.867Z,4.03
2022-08-17T12:12:14.537Z,4.03
2022-08-17T12:17:40.767Z,3.92
2022-08-17T12:20:18.600Z,4.30
2022-08-17T12:22:48.197Z,4.03
2022-08-17T12:25:19.292Z,3.88
2022-08-17T12:28:06.605Z,3.85
2022-08-17T12:30:34.349Z,3.90
2022-08-17T12:33:00.907Z,3.58
2022-08-17T12:35:35.874Z,3.80
2022-08-17T12:38:03.724Z,3.80
2022-08-17T12:40:32.449Z,3.63
2022-08-17T12:43:01.820Z,3.70
2022-08-17T12:45:32.791Z,4.05
2022-08-17T12:48:08.453Z,3.78
2022-08-17T12:50:36.097Z,3.70
2022-08-17T12:53:02.916Z,3.60
2022-08-17T12:55:32.639Z,3.50
2022-08-17T12:58:02.031Z,3.92
2022-08-17T13:00:38.166Z,3.92
2022-08-17T13:03:06.014Z,3.90
2022-08-17T13:05:35.692Z,4.03
2022-08-17T13:08:13.901Z,3.92
2022-08-17T13:10:40.523Z,3.70
2022-08-17T13:13:21.338Z,3.83
2022-08-17T13:16:09.779Z,4.00
2022-08-17T13:18:36.329Z,4.05
2022-08-17T13:21:03.020Z,3.80
2022-08-17T13:23:32.342Z,3.90
2022-08-17T13:26:07.877Z,3.55
2022-08-17T13:28:36.734Z,3.78
2022-08-17T13:31:27.950Z,3.95
2022-08-17T13:34:16.949Z,3.95
2022-08-17T13:36:46.741Z,3.78
2022-08-17T13:39:24.111Z,3.70
2022-08-17T13:41:54.001Z,4.00
2022-08-17T13:44:31.287Z,4.05
2022-08-17T13:46:59.626Z,4.25
2022-08-17T13:49:49.028Z,3.90
2022-08-17T13:52:39.189Z,3.70
2022-08-17T13:55:26.058Z,3.55
2022-08-17T13:58:04.107Z,4.15
2022-08-17T14:00:36.246Z,4.38
2022-08-17T14:03:04.327Z,4.13
2022-08-17T14:05:31.568Z,4.07
2022-08-17T14:08:02.384Z,4.20
2022-08-17T14:10:36.197Z,4.05
2022-08-17T14:13:03.381Z,4.40
2022-08-17T14:15:55.024Z,3.70
2022-08-17T14:18:55.392Z,3.67
2022-08-17T14:21:08.417Z,3.92
2022-08-17T14:23:35.473Z,4.20
2022-08-17T14:26:02.323Z,4.18
2022-08-17T14:28:28.960Z,4.18
2022-08-17T14:30:55.595Z,3.97
2022-08-17T14:33:22.759Z,3.88
2022-08-17T14:35:53.615Z,3.75
2022-08-17T14:38:20.633Z,4.25
2022-08-17T14:40:48.078Z,3.58
2022-08-17T14:43:15.916Z,3.88
2022-08-17T14:45:43.441Z,3.97
2022-08-17T14:48:10.327Z,4.22
2022-08-17T14:50:39.387Z,4.22
2022-08-17T14:53:07.511Z,4.35
2022-08-17T14:55:35.004Z,4.28
2022-08-17T14:58:01.724Z,4.55
2022-08-17T15:00:28.668Z,3.67
2022-08-17T15:02:58.476Z,3.85
2022-08-17T15:05:30.561Z,3.63
2022-08-17T15:07:57.929Z,4.00
2022-08-17T15:10:25.853Z,3.80
2022-08-17T15:12:52.732Z,4.20
2022-08-17T15:15:19.668Z,3.70
2022-08-17T15:17:46.520Z,3.63
2022-08-17T15:20:16.817Z,3.85
2022-08-17T15:22:44.523Z,3.65
2022-08-17T15:25:11.972Z,3.58
2022-08-17T15:27:38.699Z,3.78
2022-08-17T15:30:07.318Z,4.18
2022-08-17T15:32:37.883Z,3.92
2022-08-17T15:35:07.750Z,3.75
2022-08-17T15:37:34.321Z,3.90
2022-08-17T15:40:01.301Z,3.80
2022-08-17T15:42:29.307Z,3.70
2022-08-17T15:44:55.910Z,3.92
2022-08-17T15:47:23.226Z,3.40
2022-08-17T15:49:50.868Z,4.07
2022-08-17T15:52:25.466Z,3.80
2022-08-17T15:54:58.300Z,3.63
2022-08-17T15:57:25.829Z,4.25
2022-08-17T15:59:58.494Z,3.97
2022-08-17T16:03:45.087Z,4.68
2022-08-17T16:05:20.920Z,4.40
2022-08-17T16:07:48.575Z,4.15
2022-08-17T16:10:19.075Z,4.20
2022-08-17T16:12:47.637Z,3.95
2022-08-17T16:15:14.783Z,3.92
2022-08-17T16:17:41.630Z,3.88
2022-08-17T16:20:20.290Z,4.05
2022-08-17T16:22:48.824Z,3.88
2022-08-17T16:25:47.127Z,3.67
2022-08-17T16:28:16.660Z,4.05
2022-08-17T16:30:43.997Z,3.90
2022-08-17T16:33:11.642Z,4.05
2022-08-17T16:35:38.695Z,4.45
2022-08-17T16:38:05.424Z,4.20
2022-08-17T16:40:35.954Z,4.10
2022-08-17T16:43:03.645Z,4.20
2022-08-17T16:45:36.466Z,4.38
2022-08-17T16:48:03.667Z,3.78
2022-08-17T16:50:31.797Z,3.88
2022-08-17T16:53:10.744Z,4.00
2022-08-17T16:55:38.037Z,4.40
2022-08-17T16:58:06.282Z,4.00
2022-08-17T17:00:33.672Z,3.78
2022-08-17T17:03:19.615Z,4.00
2022-08-17T17:06:13.507Z,4.05
2022-08-17T17:08:46.679Z,3.67
2022-08-17T17:11:16.146Z,4.35
2022-08-17T17:13:51.142Z,4.30
2022-08-17T17:16:21.867Z,4.40
2022-08-17T17:19:11.910Z,3.97
2022-08-17T17:22:15.218Z,4.40
2022-08-17T17:24:53.384Z,4.10
2022-08-17T17:27:38.307Z,3.95
2022-08-17T17:30:15.109Z,4.47
2022-08-17T17:32:48.313Z,4.40
2022-08-17T17:35:34.675Z,4.70
2022-08-17T17:38:08.111Z,4.15
2022-08-17T17:40:44.432Z,4.72
2022-08-17T17:43:37.565Z,4.38
2022-08-17T17:46:27.599Z,5.22
2022-08-17T17:48:56.804Z,5.07
2022-08-17T17:52:06.835Z,4.93
2022-08-17T17:54:55.428Z,5.03
2022-08-17T17:57:33.894Z,4.90
2022-08-17T18:00:16.514Z,5.35
2022-08-17T18:02:52.612Z,5.10
2022-08-17T18:05:19.587Z,5.27
2022-08-17T18:08:36.603Z,5.20
2022-08-17T18:11:25.091Z,5.93
2022-08-17T18:14:03.304Z,5.30
2022-08-17T18:16:32.900Z,5.63
2022-08-17T18:19:00.195Z,5.63
2022-08-17T18:21:39.712Z,5.63
2022-08-17T18:24:08.291Z,4.90
2022-08-17T18:26:35.225Z,5.53
2022-08-17T18:29:31.801Z,5.60
2022-08-17T18:32:18.011Z,5.10
2022-08-17T18:34:48.199Z,5.23
2022-08-17T18:37:30.818Z,5.50
2022-08-17T18:39:57.567Z,5.57
2022-08-17T18:42:29.207Z,5.47
2022-08-17T18:44:56.219Z,6.03
2022-08-17T18:47:25.344Z,5.77
2022-08-17T18:49:56.342Z,5.77
2022-08-17T18:52:29.452Z,5.60
2022-08-17T18:55:15.418Z,5.90
2022-08-17T18:57:45.408Z,5.63
2022-08-17T19:00:21.643Z,5.90
2022-08-17T19:02:52.275Z,6.40
2022-08-17T19:05:35.555Z,6.20
2022-08-17T19:08:19.865Z,6.00
2022-08-17T19:10:49.113Z,5.97
2022-08-17T19:13:24.174Z,6.60
2022-08-17T19:16:12.325Z,6.50
2022-08-17T19:19:01.019Z,6.30
2022-08-17T19:21:32.814Z,6.50
2022-08-17T19:24:10.222Z,6.73
2022-08-17T19:26:54.747Z,6.80
2022-08-17T19:29:35.004Z,7.27
2022-08-17T19:32:01.789Z,6.30
2022-08-17T19:34:33.934Z,6.67
2022-08-17T19:37:11.406Z,6.30
2022-08-17T19:39:53.033Z,6.10
2022-08-17T19:42:34.370Z,6.67
2022-08-17T19:45:07.643Z,6.23
2022-08-17T19:48:12.450Z,6.17
2022-08-17T19:50:56.180Z,6.90
2022-08-17T19:53:36.720Z,6.70
2022-08-17T19:56:31.648Z,6.67
2022-08-17T19:59:04.698Z,7.17
2022-08-17T20:01:37.004Z,7.30
2022-08-17T20:04:07.647Z,6.90
2022-08-17T20:06:37.497Z,6.93
2022-08-17T20:09:21.303Z,7.07
2022-08-17T20:11:57.224Z,7.10
2022-08-17T20:14:30.630Z,6.50
2022-08-17T20:17:01.930Z,7.10
2022-08-17T20:19:44.703Z,7.27
2022-08-17T20:22:18.410Z,7.63
2022-08-17T20:24:50.760Z,7.80
2022-08-17T20:27:22.319Z,7.67
2022-08-17T20:30:01.868Z,7.47
2022-08-17T20:32:55.548Z,7.33
2022-08-17T20:35:28.624Z,7.20
2022-08-17T20:38:08.019Z,8.10
2022-08-17T20:40:57.443Z,7.23
2022-08-17T20:43:33.070Z,7.63
2022-08-17T20:46:41.698Z,7.33
2022-08-17T20:49:11.295Z,6.90
2022-08-17T20:52:09.976Z,7.30
2022-08-17T20:54:49.847Z,7.87
2022-08-17T20:57:31.678Z,7.47
2022-08-17T21:00:14.347Z,7.57
2022-08-17T21:02:49.669Z,7.10
2022-08-17T21:05:37.185Z,7.20
2022-08-17T21:08:14.131Z,7.67
2022-08-17T21:10:41.735Z,6.80
2022-08-17T21:13:08.330Z,8.00
2022-08-17T21:15:52.610Z,7.67
2022-08-17T21:18:31.787Z,7.43
2022-08-17T21:21:14.071Z,7.50
2022-08-17T21:24:04.846Z,7.77
2022-08-17T21:26:50.170Z,8.10
2022-08-17T21:29:31.270Z,7.63
2022-08-17T21:31:59.634Z,7.70
2022-08-17T21:34:32.826Z,8.30
2022-08-17T21:37:29.591Z,7.83
2022-08-17T21:40:02.318Z,7.90
2022-08-17T21:42:32.239Z,8.23
2022-08-17T21:45:25.024Z,7.97
2022-08-17T21:48:12.745Z,8.03
2022-08-17T21:50:41.777Z,7.83
2022-08-17T21:53:13.727Z,7.43
2022-08-17T21:55:40.564Z,7.70
2022-08-17T21:58:22.475Z,7.37
2022-08-17T22:01:25.750Z,8.20
2022-08-17T22:04:07.875Z,7.53
2022-08-17T22:06:36.392Z,7.80
2022-08-17T22:09:07.817Z,7.67
2022-08-17T22:11:54.769Z,8.37
2022-08-17T22:14:52.506Z,8.27
2022-08-17T22:17:47.105Z,7.50
2022-08-17T22:20:17.778Z,8.30
2022-08-17T22:23:09.192Z,7.73
2022-08-17T22:25:57.005Z,7.60
2022-08-17T22:28:42.497Z,7.77
2022-08-17T22:31:14.434Z,8.03
2022-08-17T22:33:41.556Z,8.30
2022-08-17T22:36:12.589Z,7.80
2022-08-17T22:38:41.114Z,8.07
2022-08-17T22:41:34.605Z,7.63
2022-08-17T22:44:17.221Z,8.40
2022-08-17T22:46:58.989Z,8.10
2022-08-17T22:49:33.024Z,8.17
2022-08-17T22:52:06.979Z,8.30
2022-08-17T22:54:52.162Z,8.17
2022-08-17T22:57:38.891Z,8.30
2022-08-17T23:00:06.764Z,8.50
2022-08-17T23:02:34.807Z,8.23
2022-08-17T23:05:12.743Z,8.30
2022-08-17T23:07:40.420Z,8.03
2022-08-17T23:10:09.707Z,8.73
2022-08-17T23:12:39.902Z,8.67
2022-08-17T23:15:14.394Z,8.60
2022-08-17T23:17:42.070Z,9.13
2022-08-17T23:20:12.447Z,8.73
2022-08-17T23:22:52.506Z,8.60
2022-08-17T23:25:30.248Z,8.30
2022-08-17T23:28:01.227Z,8.70
2022-08-17T23:30:30.521Z,8.43
2022-08-17T23:33:02.111Z,8.97
2022-08-17T23:35:39.394Z,8.53
2022-08-17T23:38:10.731Z,9.33
2022-08-17T23:40:39.533Z,8.60
2022-08-17T23:43:23.479Z,8.70
2022-08-17T23:45:57.543Z,8.83
2022-08-17T23:48:32.589Z,9.27
2022-08-17T23:51:04.173Z,9.40
2022-08-17T23:53:34.052Z,8.80
2022-08-17T23:56:09.053Z,9.07
2022-08-17T23:58:38.527Z,9.20
